High temp

Not for real navigation. The accuracy of this data is not assured See disclaimer for more information



ICAO NAME COUNTRY WIND Kt GUST Kt VIS m TEMP/DEW C BARO METAR
KQKG 0 0 16000 47/38 29.81 KQKG 181655Z AUTO 00000KT 10SM BKN100 47/38 A2981 RMK AO2 SLP900 WND DATA ESTMD T04740376 $
DRRN Niamey-Aero Niger 3 0 8000 37/-3 29.74 DRRN 181700Z 21003KT 8000 NSC 37/M03 Q1007 NOSIG
SBTE Teresina Aeroporto Brazil 7 0 9999 37/15 29.71 SBTE 181700Z 15007KT 9999 SCT040 37/15 Q1006
KQN3 0 0 9999 37/1 29.74 KQN3 181656Z AUTO 00000KT 9999 CAVOK 37/01 A2974 RMK AO2 SLPNO WND DATA ESTMD T03720008
SBMA Maraba Brazil 4 0 9999 37/23 29.77 SBMA 181700Z 32004KT 9999 SCT022 37/23 Q1008

Show more